createdAt,value
2023-05-06T00:02:10.655Z,97446.16
2023-05-06T00:05:14.864Z,97444.56
2023-05-06T00:08:18.767Z,97438.91
2023-05-06T00:11:22.648Z,97437.03
2023-05-06T00:14:26.778Z,97433.91
2023-05-06T00:17:31.057Z,97431.19
2023-05-06T00:20:35.030Z,97433.00
2023-05-06T00:23:38.995Z,97437.75
2023-05-06T00:26:43.018Z,97437.72
2023-05-06T00:29:47.173Z,97444.69
2023-05-06T00:32:51.167Z,97443.44
2023-05-06T00:35:55.462Z,97446.19
2023-05-06T00:38:59.241Z,97449.66
2023-05-06T00:42:03.062Z,97436.56
2023-05-06T00:45:07.515Z,97431.53
2023-05-06T00:48:12.004Z,97427.88
2023-05-06T00:51:16.034Z,97430.56
2023-05-06T00:54:19.965Z,97444.44
2023-05-06T00:57:23.813Z,97443.56
2023-05-06T01:00:28.199Z,97444.03
2023-05-06T01:03:32.241Z,97451.59
2023-05-06T01:06:36.249Z,97438.94
2023-05-06T01:09:41.242Z,97442.22
2023-05-06T01:12:45.039Z,97435.44
2023-05-06T01:15:49.161Z,97425.53
2023-05-06T01:18:53.745Z,97429.56
2023-05-06T01:21:57.599Z,97433.97
2023-05-06T01:25:01.652Z,97435.94
2023-05-06T01:28:05.722Z,97441.38
2023-05-06T01:31:09.984Z,97436.56
2023-05-06T01:34:13.933Z,97434.94
2023-05-06T01:37:18.068Z,97438.34
2023-05-06T01:40:22.074Z,97434.91
2023-05-06T01:43:26.269Z,97428.34
2023-05-06T01:46:30.637Z,97415.03
2023-05-06T01:49:34.589Z,97410.44
2023-05-06T01:52:38.362Z,97415.38
2023-05-06T01:55:42.265Z,97418.34
2023-05-06T01:58:46.310Z,97424.16
2023-05-06T02:01:51.503Z,97431.19
2023-05-06T02:04:55.687Z,97437.06
2023-05-06T02:07:59.808Z,97436.28
2023-05-06T02:11:03.776Z,97425.63
2023-05-06T02:14:07.636Z,97431.19
2023-05-06T02:17:13.276Z,97434.38
2023-05-06T02:20:17.042Z,97441.75
2023-05-06T02:23:20.707Z,97446.28
2023-05-06T02:26:25.017Z,97441.84
2023-05-06T02:29:28.865Z,97453.78
2023-05-06T02:32:32.725Z,97450.59
2023-05-06T02:35:36.841Z,97458.03
2023-05-06T02:38:40.915Z,97449.22
2023-05-06T02:41:44.632Z,97452.94
2023-05-06T02:44:51.898Z,97458.97
2023-05-06T02:47:55.845Z,97447.53
2023-05-06T02:51:00.055Z,97447.81
2023-05-06T02:54:04.105Z,97436.66
2023-05-06T02:57:08.193Z,97431.88
2023-05-06T03:00:12.344Z,97433.22
2023-05-06T03:03:16.526Z,97425.03
2023-05-06T03:06:21.884Z,97423.66
2023-05-06T03:09:26.068Z,97423.97
2023-05-06T03:12:30.256Z,97423.97
2023-05-06T03:15:34.467Z,97420.31
2023-05-06T03:18:38.290Z,97418.75
2023-05-06T03:21:42.341Z,97415.78
2023-05-06T03:24:46.026Z,97409.97
2023-05-06T03:27:50.045Z,97416.28
2023-05-06T03:30:54.138Z,97418.66
2023-05-06T03:33:57.964Z,97422.84
2023-05-06T03:37:02.010Z,97431.38
2023-05-06T03:40:06.002Z,97419.47
2023-05-06T03:43:10.172Z,97408.66
2023-05-06T03:46:14.249Z,97420.56
2023-05-06T03:49:18.208Z,97419.38
2023-05-06T03:52:22.169Z,97414.06
2023-05-06T03:55:26.483Z,97414.44
2023-05-06T03:58:30.484Z,97411.16
2023-05-06T04:01:34.759Z,97409.88
2023-05-06T04:04:38.969Z,97411.44
2023-05-06T04:07:43.338Z,97416.53
2023-05-06T04:10:47.256Z,97411.50
2023-05-06T04:13:51.146Z,97413.09
2023-05-06T04:16:56.423Z,97419.22
2023-05-06T04:20:00.439Z,97413.09
2023-05-06T04:23:04.589Z,97419.78
2023-05-06T04:26:08.442Z,97415.41
2023-05-06T04:29:12.483Z,97420.69
2023-05-06T04:32:16.138Z,97423.91
2023-05-06T04:35:22.885Z,97425.31
2023-05-06T04:38:27.095Z,97422.44
2023-05-06T04:41:31.090Z,97426.47
2023-05-06T04:44:35.089Z,97440.63
2023-05-06T04:47:38.687Z,97432.63
2023-05-06T04:50:42.745Z,97440.47
2023-05-06T04:53:46.934Z,97441.03
2023-05-06T04:56:50.686Z,97450.63
2023-05-06T04:59:54.722Z,97437.88
2023-05-06T05:02:58.810Z,97451.41
2023-05-06T05:06:02.795Z,97444.72
2023-05-06T05:09:06.690Z,97440.25
2023-05-06T05:12:10.736Z,97443.44
2023-05-06T05:15:14.622Z,97450.56
2023-05-06T05:18:18.554Z,97455.34
2023-05-06T05:21:23.065Z,97450.59
2023-05-06T05:24:26.938Z,97457.78
2023-05-06T05:27:30.908Z,97457.75
2023-05-06T05:30:34.714Z,97463.38
2023-05-06T05:33:38.839Z,97466.00
2023-05-06T05:36:42.714Z,97462.28
2023-05-06T05:39:46.830Z,97457.22
2023-05-06T05:42:50.689Z,97458.31
2023-05-06T05:45:54.854Z,97458.22
2023-05-06T05:48:58.897Z,97460.94
2023-05-06T05:52:03.155Z,97452.97
2023-05-06T05:55:07.179Z,97464.94
2023-05-06T05:58:10.874Z,97468.34
2023-05-06T06:01:15.132Z,97470.72
2023-05-06T06:04:19.228Z,97471.47
2023-05-06T06:07:22.964Z,97466.91
2023-05-06T06:10:27.045Z,97473.31
2023-05-06T06:13:31.060Z,97477.50
2023-05-06T06:16:38.201Z,97476.69
2023-05-06T06:19:42.246Z,97473.25
2023-05-06T06:22:46.278Z,97479.75
2023-05-06T06:25:50.102Z,97471.53
2023-05-06T06:28:54.074Z,97468.94
2023-05-06T06:31:58.130Z,97472.13
2023-05-06T06:35:02.192Z,97471.06
2023-05-06T06:38:06.287Z,97468.09
2023-05-06T06:41:10.037Z,97471.09
2023-05-06T06:44:13.906Z,97469.31
2023-05-06T06:47:17.885Z,97464.84
2023-05-06T06:50:22.009Z,97473.91
2023-05-06T06:53:25.927Z,97469.75
2023-05-06T06:56:29.872Z,97471.72
2023-05-06T06:59:33.765Z,97464.75
2023-05-06T07:02:37.712Z,97469.84
2023-05-06T07:05:41.671Z,97473.44
2023-05-06T07:08:45.570Z,97465.44
2023-05-06T07:11:49.378Z,97481.34
2023-05-06T07:14:53.406Z,97472.47
2023-05-06T07:17:57.564Z,97476.22
2023-05-06T07:21:01.495Z,97473.44
2023-05-06T07:24:05.538Z,97475.72
2023-05-06T07:27:09.790Z,97472.38
2023-05-06T07:30:13.883Z,97473.38
2023-05-06T07:33:17.677Z,97478.22
2023-05-06T07:36:21.641Z,97478.53
2023-05-06T07:39:26.013Z,97483.22
2023-05-06T07:42:30.084Z,97473.72
2023-05-06T07:45:34.028Z,97473.59
2023-05-06T07:48:38.131Z,97469.84
2023-05-06T07:51:41.829Z,97476.09
2023-05-06T07:54:46.968Z,97472.75
2023-05-06T07:57:51.328Z,97470.94
2023-05-06T08:00:55.329Z,97473.06
2023-05-06T08:03:59.219Z,97474.66
2023-05-06T08:07:03.190Z,97475.25
2023-05-06T08:10:07.316Z,97465.06
2023-05-06T08:13:12.017Z,97466.75
2023-05-06T08:16:15.800Z,97461.28
2023-05-06T08:19:19.721Z,97456.31
2023-05-06T08:22:23.469Z,97462.69
2023-05-06T08:25:28.798Z,97465.59
2023-05-06T08:28:32.744Z,97458.41
2023-05-06T08:31:36.729Z,97458.66
2023-05-06T08:34:40.755Z,97451.41
2023-05-06T08:37:45.040Z,97453.38
2023-05-06T08:40:48.892Z,97458.38
2023-05-06T08:43:53.071Z,97457.88
2023-05-06T08:46:57.009Z,97456.50
2023-05-06T08:50:01.143Z,97444.50
2023-05-06T08:53:05.363Z,97446.97
2023-05-06T08:56:09.385Z,97447.91
2023-05-06T08:59:13.545Z,97446.25
2023-05-06T09:02:17.484Z,97452.25
2023-05-06T09:05:21.515Z,97437.28
2023-05-06T09:08:25.443Z,97447.09
2023-05-06T09:11:29.582Z,97446.72
2023-05-06T09:14:33.460Z,97441.50
2023-05-06T09:17:37.708Z,97437.09
2023-05-06T09:20:41.660Z,97439.28
2023-05-06T09:23:46.166Z,97437.88
2023-05-06T09:26:49.776Z,97430.25
2023-05-06T09:29:53.706Z,97434.78
2023-05-06T09:32:57.590Z,97424.31
2023-05-06T09:36:01.914Z,97419.28
2023-05-06T09:39:05.971Z,97414.84
2023-05-06T09:42:09.935Z,97410.31
2023-05-06T09:45:15.690Z,97419.25
2023-05-06T09:48:19.644Z,97415.38
2023-05-06T09:51:23.711Z,97418.94
2023-05-06T09:54:27.945Z,97407.53
2023-05-06T09:57:31.592Z,97406.25
2023-05-06T10:00:35.438Z,97400.16
2023-05-06T10:03:39.756Z,97396.22
2023-05-06T10:06:43.862Z,97397.94
2023-05-06T10:09:47.645Z,97395.50
2023-05-06T10:12:51.608Z,97385.63
2023-05-06T10:15:55.866Z,97389.19
2023-05-06T10:18:59.849Z,97383.88
2023-05-06T10:22:05.593Z,97380.47
2023-05-06T10:25:10.087Z,97377.88
2023-05-06T10:28:16.478Z,97375.00
2023-05-06T10:31:29.011Z,97377.22
2023-05-06T10:34:33.951Z,97372.97
2023-05-06T10:37:37.924Z,97362.63
2023-05-06T10:40:41.851Z,97364.16
2023-05-06T10:43:45.913Z,97363.13
2023-05-06T10:46:50.058Z,97361.47
2023-05-06T10:49:54.044Z,97358.69
2023-05-06T10:52:58.034Z,97358.22
2023-05-06T10:56:01.881Z,97354.88
2023-05-06T10:59:06.174Z,97361.63
2023-05-06T11:02:10.313Z,97353.34
2023-05-06T11:05:13.817Z,97345.56
2023-05-06T11:08:17.830Z,97342.69
2023-05-06T11:11:22.075Z,97337.81
2023-05-06T11:14:25.945Z,97331.84
2023-05-06T11:17:30.019Z,97329.53
2023-05-06T11:20:33.623Z,97316.06
2023-05-06T11:23:37.637Z,97329.03
2023-05-06T11:26:41.636Z,97324.94
2023-05-06T11:29:45.711Z,97319.53
2023-05-06T11:32:52.988Z,97315.28
2023-05-06T11:35:57.103Z,97318.13
2023-05-06T11:39:05.355Z,97311.75
2023-05-06T11:42:09.266Z,97308.13
2023-05-06T11:45:13.355Z,97310.59
2023-05-06T11:48:17.603Z,97306.47
2023-05-06T11:51:21.838Z,97298.28
2023-05-06T11:54:25.768Z,97304.59
2023-05-06T11:57:29.770Z,97296.16
2023-05-06T12:00:33.940Z,97304.31
2023-05-06T12:03:38.099Z,97301.81
2023-05-06T12:06:42.000Z,97294.06
2023-05-06T12:09:46.005Z,97294.69
2023-05-06T12:12:49.938Z,97292.56
2023-05-06T12:15:54.216Z,97287.94
2023-05-06T12:18:57.933Z,97285.06
2023-05-06T12:22:01.835Z,97288.66
2023-05-06T12:25:09.303Z,97284.75
2023-05-06T12:28:13.406Z,97285.00
2023-05-06T12:31:19.586Z,97276.25
2023-05-06T12:34:23.615Z,97277.75
2023-05-06T12:37:27.788Z,97277.50
2023-05-06T12:40:31.514Z,97271.94
2023-05-06T12:43:35.713Z,97273.69
2023-05-06T12:46:39.830Z,97275.75
2023-05-06T12:49:43.842Z,97273.06
2023-05-06T12:52:47.740Z,97269.72
2023-05-06T12:55:51.475Z,97261.94
2023-05-06T12:58:55.381Z,97263.28
2023-05-06T13:01:59.607Z,97262.13
2023-05-06T13:05:03.356Z,97253.53
2023-05-06T13:08:07.339Z,97250.47
2023-05-06T13:11:11.254Z,97237.00
2023-05-06T13:14:15.422Z,97244.47
2023-05-06T13:17:19.857Z,97239.91
2023-05-06T13:20:24.047Z,97233.56
2023-05-06T13:23:27.901Z,97231.97
2023-05-06T13:26:31.886Z,97230.22
2023-05-06T13:29:36.252Z,97230.53
2023-05-06T13:32:40.308Z,97226.75
2023-05-06T13:35:44.078Z,97226.44
2023-05-06T13:38:48.229Z,97227.53
2023-05-06T13:41:53.891Z,97223.88
2023-05-06T13:44:58.464Z,97215.22
2023-05-06T13:48:03.016Z,97208.25
2023-05-06T13:51:06.990Z,97209.47
2023-05-06T13:54:10.593Z,97205.84
2023-05-06T13:57:14.455Z,97199.59
2023-05-06T14:00:18.119Z,97198.84
2023-05-06T14:03:23.466Z,97196.03
2023-05-06T14:06:27.307Z,97203.56
2023-05-06T14:09:31.300Z,97195.06
2023-05-06T14:12:35.457Z,97198.84
2023-05-06T14:15:39.530Z,97199.66
2023-05-06T14:18:43.687Z,97205.94
2023-05-06T14:21:47.960Z,97202.28
2023-05-06T14:24:51.874Z,97195.00
2023-05-06T14:27:56.120Z,97194.81
2023-05-06T14:31:00.351Z,97197.16
2023-05-06T14:34:04.325Z,97201.63
2023-05-06T14:37:08.160Z,97197.31
2023-05-06T14:40:12.371Z,97206.69
2023-05-06T14:43:16.409Z,97217.50
2023-05-06T14:46:20.471Z,97212.72
2023-05-06T14:49:24.318Z,97219.69
2023-05-06T14:52:28.242Z,97209.94
2023-05-06T14:55:32.426Z,97202.56
2023-05-06T14:58:36.095Z,97177.97
2023-05-06T15:01:39.643Z,97173.69
2023-05-06T15:04:43.593Z,97183.94
2023-05-06T15:07:47.839Z,97186.28
2023-05-06T15:10:52.220Z,97181.53
2023-05-06T15:13:56.686Z,97148.94
2023-05-06T15:17:00.704Z,97168.94
2023-05-06T15:20:04.556Z,97172.09
2023-05-06T15:23:08.756Z,97168.72
2023-05-06T15:26:13.084Z,97181.88
2023-05-06T15:29:17.091Z,97161.47
2023-05-06T15:32:21.048Z,97174.75
2023-05-06T15:35:25.142Z,97182.34
2023-05-06T15:38:29.281Z,97183.44
2023-05-06T15:41:33.376Z,97193.53
2023-05-06T15:44:37.643Z,97194.78
2023-05-06T15:47:41.795Z,97190.72
2023-05-06T15:50:47.322Z,97190.53
2023-05-06T15:53:51.501Z,97194.06
2023-05-06T15:56:55.810Z,97189.78
2023-05-06T15:59:59.657Z,97181.63
2023-05-06T16:03:07.283Z,97185.28
2023-05-06T16:06:12.586Z,97171.88
2023-05-06T16:09:16.594Z,97172.66
2023-05-06T16:12:20.594Z,97171.91
2023-05-06T16:15:24.374Z,97177.03
2023-05-06T16:18:29.375Z,97168.00
2023-05-06T16:21:33.330Z,97153.81
2023-05-06T16:24:37.399Z,97148.34
2023-05-06T16:27:41.538Z,97153.97
2023-05-06T16:30:45.801Z,97153.00
2023-05-06T16:33:49.410Z,97153.13
2023-05-06T16:36:53.577Z,97160.28
2023-05-06T16:39:57.863Z,97150.81
2023-05-06T16:43:11.641Z,97152.56
2023-05-06T16:45:56.611Z,97154.66
2023-05-06T16:49:04.807Z,97154.09
2023-05-06T17:02:56.740Z,97154.34
2023-05-06T17:20:55.073Z,97146.88
2023-05-06T17:29:37.703Z,97134.34
2023-05-06T19:17:38.805Z,97169.41
2023-05-06T19:20:43.797Z,97169.44
2023-05-06T19:27:14.736Z,97167.75
2023-05-06T19:30:19.357Z,97170.38
2023-05-06T19:36:47.340Z,97179.72
2023-05-06T19:39:51.462Z,97178.66
2023-05-06T19:42:56.723Z,97177.41
2023-05-06T19:46:00.928Z,97181.19
2023-05-06T19:49:05.359Z,97182.19
2023-05-06T19:52:13.614Z,97182.75
2023-05-06T19:55:17.808Z,97169.31
2023-05-06T19:58:22.056Z,97170.09
2023-05-06T20:01:26.943Z,97174.75
2023-05-06T20:04:32.339Z,97175.13
2023-05-06T20:07:36.265Z,97182.44
2023-05-06T20:10:45.599Z,97185.63
2023-05-06T20:13:50.205Z,97182.56
2023-05-06T20:16:54.885Z,97188.31
2023-05-06T20:19:59.085Z,97184.69
2023-05-06T20:23:03.245Z,97179.97
2023-05-06T20:26:07.456Z,97184.00
2023-05-06T20:29:11.310Z,97180.50
2023-05-06T20:32:15.886Z,97185.72
2023-05-06T20:35:20.012Z,97190.44
2023-05-06T20:38:25.532Z,97186.75
2023-05-06T20:41:34.024Z,97199.41
2023-05-06T20:44:37.984Z,97200.28
2023-05-06T20:47:41.877Z,97201.00
2023-05-06T20:50:46.290Z,97201.22
2023-05-06T20:53:50.470Z,97200.41
2023-05-06T20:56:57.488Z,97195.59
2023-05-06T21:00:01.447Z,97192.53
2023-05-06T21:03:07.837Z,97192.88
2023-05-06T21:06:11.656Z,97206.75
2023-05-06T21:09:17.244Z,97205.75
2023-05-06T21:12:21.137Z,97202.31
2023-05-06T21:15:25.237Z,97206.94
2023-05-06T21:18:32.704Z,97201.59
2023-05-06T21:21:37.057Z,97206.25
2023-05-06T21:24:42.214Z,97204.94
2023-05-06T21:27:50.470Z,97209.19
2023-05-06T21:30:54.084Z,97208.44
2023-05-06T21:33:57.981Z,97209.81
2023-05-06T21:37:08.481Z,97210.97
2023-05-06T21:40:12.761Z,97219.66
2023-05-06T21:43:17.458Z,97210.75
2023-05-06T21:46:24.414Z,97220.78
2023-05-06T21:49:28.092Z,97223.72
2023-05-06T21:52:32.060Z,97219.38
2023-05-06T21:55:35.891Z,97221.56
2023-05-06T21:58:39.944Z,97227.19
2023-05-06T22:01:43.840Z,97221.19
2023-05-06T22:04:47.570Z,97224.09
2023-05-06T22:07:51.491Z,97225.25
2023-05-06T22:10:55.812Z,97220.91
2023-05-06T22:14:00.353Z,97222.94
2023-05-06T22:17:06.030Z,97224.72
2023-05-06T22:20:10.376Z,97227.94
2023-05-06T22:23:14.163Z,97213.72
2023-05-06T22:26:18.211Z,97219.88
2023-05-06T22:29:22.106Z,97229.78
2023-05-06T22:32:25.953Z,97218.50
2023-05-06T22:35:30.077Z,97231.06
2023-05-06T22:38:33.941Z,97231.44
2023-05-06T22:41:37.983Z,97235.63
2023-05-06T22:44:41.859Z,97231.75
2023-05-06T22:47:45.736Z,97233.03
2023-05-06T22:54:18.034Z,97232.13
2023-05-06T22:57:22.789Z,97232.22
2023-05-06T23:00:27.532Z,97229.09
2023-05-06T23:03:31.982Z,97235.34
2023-05-06T23:06:36.336Z,97233.34
2023-05-06T23:09:40.091Z,97244.75
2023-05-06T23:12:47.186Z,97236.78
2023-05-06T23:15:50.931Z,97235.47
2023-05-06T23:18:54.898Z,97232.56
2023-05-06T23:21:58.880Z,97236.63
2023-05-06T23:25:02.866Z,97229.97
2023-05-06T23:28:06.491Z,97239.34
2023-05-06T23:31:10.586Z,97237.13
2023-05-06T23:34:14.227Z,97239.00
2023-05-06T23:37:19.496Z,97243.50
2023-05-06T23:40:23.511Z,97241.63
2023-05-06T23:43:27.443Z,97239.19
2023-05-06T23:46:31.476Z,97244.66
2023-05-06T23:49:35.531Z,97249.53
2023-05-06T23:52:39.501Z,97242.09
2023-05-06T23:55:47.073Z,97244.69
2023-05-06T23:58:51.347Z,97252.06
